createdAt,value
2018-09-13T00:01:06.547Z,19.20
2018-09-13T00:03:35.375Z,19.20
2018-09-13T00:06:04.115Z,19.20
2018-09-13T00:08:32.859Z,19.10
2018-09-13T00:11:01.749Z,19.20
2018-09-13T00:13:30.571Z,18.60
2018-09-13T00:15:59.411Z,19.40
2018-09-13T00:18:28.922Z,19.50
2018-09-13T00:20:57.789Z,19.60
2018-09-13T00:23:26.468Z,19.60
2018-09-13T00:25:55.324Z,19.60
2018-09-13T00:28:24.202Z,19.50
2018-09-13T00:30:53.089Z,19.50
2018-09-13T00:33:22.179Z,19.40
2018-09-13T00:35:50.881Z,19.40
2018-09-13T00:38:19.926Z,19.30
2018-09-13T00:40:48.645Z,19.20
2018-09-13T00:43:17.391Z,19.20
2018-09-13T00:45:46.131Z,18.80
2018-09-13T00:48:14.897Z,19.20
2018-09-13T00:50:43.823Z,19.20
2018-09-13T00:53:12.622Z,19.20
2018-09-13T00:55:42.411Z,19.20
2018-09-13T00:58:11.969Z,19.10
2018-09-13T01:00:40.882Z,19.20
2018-09-13T01:03:09.627Z,19.30
2018-09-13T01:05:38.853Z,19.30
2018-09-13T01:08:07.616Z,19.10
2018-09-13T01:10:36.581Z,19.00
2018-09-13T01:13:05.765Z,19.10
2018-09-13T01:15:34.433Z,19.30
2018-09-13T01:18:03.409Z,19.40
2018-09-13T01:20:32.832Z,19.50
2018-09-13T01:23:01.573Z,19.50
2018-09-13T01:25:30.618Z,19.50
2018-09-13T01:27:59.324Z,19.50
2018-09-13T01:30:28.253Z,19.50
2018-09-13T01:32:57.032Z,19.40
2018-09-13T01:35:25.813Z,19.20
2018-09-13T01:37:55.291Z,17.60
2018-09-13T01:40:23.951Z,19.10
2018-09-13T01:42:53.869Z,19.10
2018-09-13T01:45:22.800Z,18.80
2018-09-13T01:47:51.682Z,19.20
2018-09-13T01:50:20.695Z,19.20
2018-09-13T01:52:49.611Z,19.20
2018-09-13T01:55:18.507Z,19.20
2018-09-13T01:57:47.804Z,17.50
2018-09-13T02:00:16.520Z,19.30
2018-09-13T02:02:45.397Z,19.30
2018-09-13T02:05:13.999Z,19.50
2018-09-13T02:10:24.679Z,19.60
2018-09-13T02:12:53.644Z,19.60
2018-09-13T02:15:22.402Z,19.60
2018-09-13T02:17:51.183Z,19.50
2018-09-13T02:20:20.179Z,19.50
2018-09-13T02:22:49.009Z,20.60
2018-09-13T02:25:17.848Z,19.40
2018-09-13T02:27:46.607Z,19.40
2018-09-13T02:30:15.523Z,19.40
2018-09-13T02:32:44.245Z,19.40
2018-09-13T02:35:13.200Z,19.40
2018-09-13T02:37:42.584Z,19.40
2018-09-13T02:40:11.355Z,19.50
2018-09-13T02:42:40.384Z,17.60
2018-09-13T02:45:09.121Z,19.60
2018-09-13T02:47:38.891Z,19.60
2018-09-13T02:50:07.671Z,19.60
2018-09-13T02:52:36.487Z,19.50
2018-09-13T02:55:05.481Z,18.10
2018-09-13T02:57:34.389Z,19.30
2018-09-13T03:00:03.098Z,19.20
2018-09-13T03:02:32.108Z,19.10
2018-09-13T03:05:00.795Z,19.10
2018-09-13T03:07:29.585Z,19.10
2018-09-13T03:09:58.400Z,19.10
2018-09-13T03:12:27.085Z,19.10
2018-09-13T03:14:55.688Z,18.60
2018-09-13T03:17:24.580Z,19.10
2018-09-13T03:19:53.266Z,19.10
2018-09-13T03:22:23.537Z,19.20
2018-09-13T03:24:53.044Z,17.70
2018-09-13T03:27:22.163Z,18.80
2018-09-13T03:29:51.060Z,18.70
2018-09-13T03:32:20.848Z,18.70
2018-09-13T03:34:49.691Z,18.70
2018-09-13T03:37:18.418Z,18.70
2018-09-13T03:39:49.026Z,18.80
2018-09-13T03:42:17.765Z,18.80
2018-09-13T03:44:46.395Z,18.80
2018-09-13T03:47:15.272Z,18.80
2018-09-13T03:49:44.104Z,18.90
2018-09-13T03:52:12.663Z,18.90
2018-09-13T03:54:41.509Z,18.90
2018-09-13T03:57:10.419Z,18.80
2018-09-13T03:59:39.288Z,18.70
2018-09-13T04:02:07.978Z,18.60
2018-09-13T04:04:36.772Z,18.60
2018-09-13T04:07:05.483Z,18.50
2018-09-13T04:09:34.165Z,18.50
2018-09-13T04:12:04.036Z,18.50
2018-09-13T04:14:33.021Z,18.50
2018-09-13T04:17:01.899Z,18.50
2018-09-13T04:19:34.880Z,18.50
2018-09-13T04:22:03.750Z,18.60
2018-09-13T04:24:32.518Z,18.10
2018-09-13T04:27:01.198Z,18.60
2018-09-13T04:29:30.084Z,18.60
2018-09-13T04:31:58.899Z,18.60
2018-09-13T04:34:27.595Z,18.50
2018-09-13T04:36:56.369Z,18.40
2018-09-13T04:39:25.246Z,18.40
2018-09-13T04:41:54.083Z,18.30
2018-09-13T04:44:22.830Z,18.20
2018-09-13T04:46:51.747Z,16.60
2018-09-13T04:49:20.817Z,18.30
2018-09-13T04:51:49.702Z,18.40
2018-09-13T04:54:18.410Z,18.40
2018-09-13T04:56:47.105Z,18.50
2018-09-13T04:59:16.126Z,18.50
2018-09-13T05:01:45.505Z,18.50
2018-09-13T05:04:14.525Z,18.40
2018-09-13T05:06:43.377Z,18.50
2018-09-13T05:09:13.615Z,18.50
2018-09-13T05:11:42.910Z,18.50
2018-09-13T05:14:11.571Z,18.50
2018-09-13T05:16:40.230Z,18.50
2018-09-13T05:19:09.163Z,18.50
2018-09-13T05:21:39.249Z,18.50
2018-09-13T05:24:08.302Z,18.50
2018-09-13T05:26:37.335Z,18.50
2018-09-13T05:29:08.597Z,18.50
2018-09-13T05:31:37.431Z,18.50
2018-09-13T05:34:06.579Z,18.60
2018-09-13T05:36:35.485Z,18.60
2018-09-13T05:39:05.762Z,18.50
2018-09-13T05:41:34.407Z,18.60
2018-09-13T05:44:03.174Z,18.50
2018-09-13T05:46:31.898Z,18.50
2018-09-13T05:49:00.641Z,17.50
2018-09-13T05:51:29.422Z,18.60
2018-09-13T05:53:58.196Z,18.70
2018-09-13T05:56:27.023Z,18.80
2018-09-13T06:00:24.979Z,18.80
2018-09-13T06:02:53.765Z,18.90
2018-09-13T06:05:22.447Z,19.00
2018-09-13T06:07:52.165Z,19.10
2018-09-13T06:10:20.911Z,19.10
2018-09-13T06:12:49.760Z,19.20
2018-09-13T06:15:18.552Z,19.20
2018-09-13T06:17:54.118Z,19.20
2018-09-13T06:20:29.971Z,19.20
2018-09-13T06:22:58.890Z,19.20
2018-09-13T06:25:28.416Z,19.20
2018-09-13T06:27:57.555Z,19.30
2018-09-13T06:30:26.246Z,19.40
2018-09-13T06:32:54.973Z,19.40
2018-09-13T06:35:23.748Z,19.60
2018-09-13T06:37:53.174Z,19.70
2018-09-13T06:40:22.040Z,19.70
2018-09-13T06:42:50.847Z,19.80
2018-09-13T06:45:19.734Z,19.90
2018-09-13T06:47:48.448Z,20.10
2018-09-13T06:50:17.199Z,20.10
2018-09-13T06:52:46.010Z,19.50
2018-09-13T06:55:14.683Z,20.20
2018-09-13T06:57:43.414Z,19.30
2018-09-13T07:00:12.161Z,20.20
2018-09-13T07:02:40.879Z,20.20
2018-09-13T07:05:10.447Z,20.20
2018-09-13T07:07:39.261Z,20.20
2018-09-13T07:10:07.998Z,20.20
2018-09-13T07:12:40.887Z,20.20
2018-09-13T07:15:10.430Z,20.20
2018-09-13T07:17:39.120Z,20.20
2018-09-13T07:20:08.229Z,20.10
2018-09-13T07:22:36.984Z,20.00
2018-09-13T07:25:05.803Z,20.00
2018-09-13T07:27:35.627Z,20.00
2018-09-13T07:30:04.904Z,20.00
2018-09-13T07:32:33.823Z,20.00
2018-09-13T07:35:02.809Z,20.20
2018-09-13T07:37:31.693Z,20.20
2018-09-13T07:40:00.574Z,20.30
2018-09-13T07:42:29.450Z,20.40
2018-09-13T07:44:58.341Z,19.60
2018-09-13T07:47:28.180Z,20.40
2018-09-13T07:49:57.115Z,20.50
2018-09-13T07:52:25.784Z,19.00
2018-09-13T07:54:54.502Z,20.60
2018-09-13T07:57:23.195Z,20.70
2018-09-13T07:59:52.088Z,20.80
2018-09-13T08:02:20.772Z,20.90
2018-09-13T08:04:49.588Z,21.00
2018-09-13T08:07:18.574Z,21.20
2018-09-13T08:09:47.272Z,20.30
2018-09-13T08:12:16.051Z,21.60
2018-09-13T08:14:45.437Z,21.80
2018-09-13T08:17:14.310Z,21.90
2018-09-13T08:19:42.957Z,22.00
2018-09-13T08:22:12.363Z,21.40
2018-09-13T08:24:41.054Z,22.30
2018-09-13T08:27:15.571Z,22.50
2018-09-13T08:29:44.835Z,22.40
2018-09-13T08:32:13.583Z,22.10
2018-09-13T08:34:43.090Z,22.00
2018-09-13T08:37:11.828Z,21.90
2018-09-13T08:39:40.653Z,21.80
2018-09-13T08:42:09.271Z,21.80
2018-09-13T08:44:37.956Z,21.80
2018-09-13T08:47:06.912Z,22.00
2018-09-13T08:49:35.867Z,22.10
2018-09-13T08:52:05.218Z,22.20
2018-09-13T08:54:34.106Z,22.30
2018-09-13T08:57:02.984Z,22.60
2018-09-13T08:59:31.882Z,21.90
2018-09-13T09:02:00.651Z,22.90
2018-09-13T09:04:29.424Z,23.00
2018-09-13T09:06:58.874Z,23.00
2018-09-13T09:09:27.672Z,23.00
2018-09-13T09:11:56.368Z,23.00
2018-09-13T09:14:26.526Z,23.10
2018-09-13T09:16:55.258Z,23.20
2018-09-13T09:19:24.387Z,23.30
2018-09-13T09:21:53.038Z,23.40
2018-09-13T09:24:22.085Z,23.50
2018-09-13T09:26:50.918Z,22.50
2018-09-13T09:29:20.320Z,23.90
2018-09-13T09:31:49.551Z,24.10
2018-09-13T09:34:18.529Z,24.40
2018-09-13T09:36:48.498Z,24.70
2018-09-13T09:39:18.329Z,25.00
2018-09-13T09:41:50.212Z,25.20
2018-09-13T09:44:21.301Z,25.30
2018-09-13T09:46:50.450Z,25.20
2018-09-13T09:49:19.330Z,25.20
2018-09-13T09:51:48.570Z,25.20
2018-09-13T09:54:17.385Z,25.20
2018-09-13T09:56:47.319Z,25.40
2018-09-13T09:59:15.995Z,25.50
2018-09-13T10:01:50.002Z,25.60
2018-09-13T10:11:03.263Z,25.80
2018-09-13T10:13:32.022Z,25.50
2018-09-13T10:16:06.161Z,25.60
2018-09-13T10:18:40.133Z,25.60
2018-09-13T10:21:18.696Z,25.70
2018-09-13T10:23:58.005Z,24.00
2018-09-13T10:26:32.274Z,25.80
2018-09-13T10:29:06.340Z,26.30
2018-09-13T10:31:40.477Z,27.40
2018-09-13T10:34:14.511Z,28.30
2018-09-13T10:36:48.758Z,28.20
2018-09-13T10:39:23.136Z,28.00
2018-09-13T10:41:57.161Z,27.70
2018-09-13T10:44:31.146Z,27.70
2018-09-13T10:47:05.029Z,27.70
2018-09-13T10:49:39.366Z,28.50
2018-09-13T10:52:14.051Z,28.10
2018-09-13T10:54:43.576Z,27.00
2018-09-13T10:57:17.525Z,27.50
2018-09-13T10:59:47.290Z,27.20
2018-09-13T11:02:16.090Z,27.20
2018-09-13T11:04:45.670Z,27.30
2018-09-13T11:07:14.526Z,27.30
2018-09-13T11:09:43.390Z,28.00
2018-09-13T11:12:14.029Z,28.30
2018-09-13T11:14:48.196Z,28.60
2018-09-13T11:17:17.416Z,28.90
2018-09-13T11:19:46.316Z,29.70
2018-09-13T11:22:15.027Z,30.50
2018-09-13T11:24:43.635Z,30.60
2018-09-13T11:27:12.307Z,31.60
2018-09-13T11:29:41.147Z,32.70
2018-09-13T11:32:10.022Z,32.60
2018-09-13T11:34:38.872Z,31.70
2018-09-13T11:37:14.541Z,31.40
2018-09-13T11:39:43.497Z,30.90
2018-09-13T11:42:12.609Z,30.20
2018-09-13T11:44:41.423Z,30.50
2018-09-13T11:47:10.109Z,30.20
2018-09-13T11:49:38.896Z,29.80
2018-09-13T11:52:07.591Z,29.50
2018-09-13T11:54:36.244Z,29.10
2018-09-13T11:57:05.404Z,28.70
2018-09-13T11:59:34.071Z,28.70
2018-09-13T12:02:02.895Z,28.90
2018-09-13T12:04:31.719Z,29.10
2018-09-13T12:07:00.464Z,29.80
2018-09-13T12:09:29.213Z,31.10
2018-09-13T12:11:58.135Z,31.70
2018-09-13T12:14:26.835Z,31.40
2018-09-13T12:16:55.569Z,31.10
2018-09-13T12:19:24.305Z,30.80
2018-09-13T12:21:53.024Z,30.70
2018-09-13T12:24:21.826Z,30.60
2018-09-13T12:26:55.502Z,30.10
2018-09-13T12:29:25.370Z,29.70
2018-09-13T12:31:54.304Z,29.70
2018-09-13T12:34:23.926Z,30.10
2018-09-13T12:37:02.141Z,30.20
2018-09-13T12:39:36.484Z,29.90
2018-09-13T12:42:14.562Z,28.20
2018-09-13T12:44:43.595Z,29.50
2018-09-13T12:47:12.441Z,29.70
2018-09-13T12:49:41.192Z,29.70
2018-09-13T12:52:10.015Z,29.60
2018-09-13T12:54:49.841Z,28.20
2018-09-13T12:57:25.035Z,29.70
2018-09-13T12:59:54.175Z,30.30
2018-09-13T13:02:23.136Z,30.70
2018-09-13T13:04:51.807Z,31.00
2018-09-13T13:07:20.673Z,31.00
2018-09-13T13:09:49.656Z,31.30
2018-09-13T13:12:18.463Z,32.10
2018-09-13T13:14:47.221Z,32.30
2018-09-13T13:17:15.979Z,32.10
2018-09-13T13:19:45.955Z,31.90
2018-09-13T13:22:19.368Z,31.70
2018-09-13T13:24:48.130Z,31.80
2018-09-13T13:27:16.772Z,33.20
2018-09-13T13:29:45.634Z,34.30
2018-09-13T13:32:14.582Z,34.90
2018-09-13T13:34:43.354Z,35.70
2018-09-13T13:37:12.199Z,35.70
2018-09-13T13:39:40.970Z,35.40
2018-09-13T13:42:09.821Z,34.70
2018-09-13T13:44:46.361Z,33.10
2018-09-13T13:47:15.352Z,31.60
2018-09-13T13:49:44.106Z,30.70
2018-09-13T13:52:12.836Z,30.70
2018-09-13T13:54:41.547Z,31.90
2018-09-13T13:57:10.353Z,31.40
2018-09-13T13:59:39.046Z,33.40
2018-09-13T14:02:07.823Z,31.90
2018-09-13T14:04:36.629Z,31.00
2018-09-13T14:07:05.315Z,30.50
2018-09-13T14:09:46.223Z,30.20
2018-09-13T14:12:15.053Z,30.10
2018-09-13T14:14:43.809Z,28.80
2018-09-13T14:17:18.629Z,30.30
2018-09-13T14:19:47.545Z,30.50
2018-09-13T14:22:16.482Z,30.50
2018-09-13T14:24:45.284Z,30.70
2018-09-13T14:27:14.035Z,30.90
2018-09-13T14:29:42.799Z,30.90
2018-09-13T14:32:11.642Z,30.90
2018-09-13T14:34:40.410Z,30.70
2018-09-13T14:37:09.116Z,30.20
2018-09-13T14:39:38.219Z,28.30
2018-09-13T14:42:07.089Z,29.60
2018-09-13T14:44:35.766Z,29.30
2018-09-13T14:47:04.504Z,29.00
2018-09-13T14:49:33.478Z,28.90
2018-09-13T14:52:02.304Z,28.70
2018-09-13T14:54:31.060Z,28.70
2018-09-13T14:56:59.845Z,28.70
2018-09-13T14:59:28.519Z,28.70
2018-09-13T15:01:57.260Z,28.70
2018-09-13T15:04:26.166Z,28.60
2018-09-13T15:06:55.041Z,28.50
2018-09-13T15:09:23.846Z,28.60
2018-09-13T15:11:52.722Z,28.60
2018-09-13T15:14:21.667Z,28.80
2018-09-13T15:16:50.530Z,28.90
2018-09-13T15:19:19.290Z,28.00
2018-09-13T15:21:47.903Z,28.90
2018-09-13T15:24:18.549Z,28.60
2018-09-13T15:26:47.516Z,28.40
2018-09-13T15:29:20.944Z,28.30
2018-09-13T15:31:53.609Z,28.10
2018-09-13T15:34:22.574Z,28.50
2018-09-13T15:36:51.245Z,27.70
2018-09-13T15:39:19.803Z,27.70
2018-09-13T15:41:48.673Z,27.70
2018-09-13T15:44:17.462Z,27.70
2018-09-13T15:46:46.402Z,27.80
2018-09-13T15:49:15.054Z,27.70
2018-09-13T15:51:44.497Z,27.70
2018-09-13T15:54:13.336Z,27.80
2018-09-13T15:56:42.688Z,28.50
2018-09-13T15:59:11.426Z,27.70
2018-09-13T16:01:40.234Z,27.70
2018-09-13T16:04:09.003Z,27.60
2018-09-13T16:06:37.864Z,27.60
2018-09-13T16:09:07.925Z,27.40
2018-09-13T16:11:36.816Z,27.30
2018-09-13T16:14:05.619Z,27.20
2018-09-13T16:16:34.555Z,27.10
2018-09-13T16:19:03.279Z,27.00
2018-09-13T16:21:31.960Z,26.90
2018-09-13T16:24:00.599Z,26.80
2018-09-13T16:26:29.288Z,26.80
2018-09-13T16:28:58.285Z,26.60
2018-09-13T16:31:27.207Z,26.50
2018-09-13T16:33:55.903Z,26.30
2018-09-13T16:36:27.660Z,26.20
2018-09-13T16:39:02.044Z,26.10
2018-09-13T16:41:41.256Z,26.10
2018-09-13T16:44:14.895Z,25.90
2018-09-13T16:46:48.756Z,25.80
2018-09-13T16:49:17.522Z,25.60
2018-09-13T16:51:46.217Z,25.00
2018-09-13T16:54:15.004Z,23.90
2018-09-13T16:56:43.966Z,25.40
2018-09-13T16:59:12.829Z,25.40
2018-09-13T17:01:41.647Z,25.30
2018-09-13T17:04:10.448Z,25.20
2018-09-13T17:06:39.135Z,25.10
2018-09-13T17:09:09.448Z,25.00
2018-09-13T17:11:38.229Z,25.00
2018-09-13T17:14:07.350Z,24.80
2018-09-13T17:16:36.259Z,24.80
2018-09-13T17:19:05.069Z,24.80
2018-09-13T17:21:34.704Z,24.70
2018-09-13T17:24:04.020Z,24.70
2018-09-13T17:26:33.253Z,24.60
2018-09-13T17:29:02.500Z,24.60
2018-09-13T17:31:31.429Z,24.60
2018-09-13T17:34:00.555Z,24.60
2018-09-13T17:36:29.546Z,24.50
2018-09-13T17:38:58.242Z,24.50
2018-09-13T17:41:27.023Z,24.40
2018-09-13T17:43:55.616Z,24.30
2018-09-13T17:46:24.521Z,24.30
2018-09-13T17:48:53.264Z,24.20
2018-09-13T17:51:22.018Z,24.10
2018-09-13T17:53:50.674Z,24.10
2018-09-13T17:56:19.500Z,24.00
2018-09-13T17:58:48.405Z,24.00
2018-09-13T18:01:17.106Z,23.70
2018-09-13T18:03:45.893Z,24.00
2018-09-13T18:06:14.685Z,23.90
2018-09-13T18:08:43.428Z,23.90
2018-09-13T18:11:12.337Z,23.90
2018-09-13T18:13:41.112Z,23.80
2018-09-13T18:16:09.851Z,23.80
2018-09-13T18:18:38.614Z,23.80
2018-09-13T18:21:07.486Z,23.80
2018-09-13T18:23:36.268Z,23.80
2018-09-13T18:26:05.178Z,23.80
2018-09-13T18:28:34.089Z,23.80
2018-09-13T18:31:03.051Z,23.70
2018-09-13T18:33:31.858Z,23.70
2018-09-13T18:36:00.585Z,23.60
2018-09-13T18:38:29.063Z,23.60
2018-09-13T18:40:58.016Z,23.60
2018-09-13T18:43:26.720Z,23.60
2018-09-13T18:45:55.424Z,23.70
2018-09-13T18:48:24.085Z,23.70
2018-09-13T18:50:52.777Z,23.70
2018-09-13T18:53:21.397Z,23.70
2018-09-13T18:55:50.182Z,23.70
2018-09-13T18:58:18.891Z,23.70
2018-09-13T19:00:47.708Z,23.70
2018-09-13T19:03:16.562Z,23.70
2018-09-13T19:05:45.221Z,23.70
2018-09-13T19:08:14.429Z,23.70
2018-09-13T19:10:43.259Z,23.70
2018-09-13T19:13:11.952Z,23.80
2018-09-13T19:15:40.712Z,23.70
2018-09-13T19:18:09.466Z,23.70
2018-09-13T19:20:38.169Z,23.70
2018-09-13T19:23:08.068Z,23.80
2018-09-13T19:25:36.770Z,23.80
2018-09-13T19:28:05.327Z,23.80
2018-09-13T19:30:34.052Z,23.70
2018-09-13T19:33:03.692Z,23.70
2018-09-13T19:35:32.350Z,23.70
2018-09-13T19:38:01.110Z,23.80
2018-09-13T19:40:29.817Z,23.70
2018-09-13T19:42:58.537Z,23.70
2018-09-13T19:45:27.183Z,23.70
2018-09-13T19:47:56.211Z,23.70
2018-09-13T19:50:24.773Z,23.80
2018-09-13T19:52:54.466Z,23.80
2018-09-13T19:55:23.080Z,23.70
2018-09-13T19:57:51.707Z,23.60
2018-09-13T20:00:20.385Z,23.50
2018-09-13T20:02:49.087Z,23.40
2018-09-13T20:05:17.952Z,23.40
2018-09-13T20:07:46.603Z,23.40
2018-09-13T20:10:15.533Z,23.10
2018-09-13T20:12:44.584Z,20.70
2018-09-13T20:15:13.311Z,22.90
2018-09-13T20:17:41.968Z,22.90
2018-09-13T20:20:10.640Z,22.80
2018-09-13T20:22:39.558Z,22.60
2018-09-13T20:25:08.326Z,22.30
2018-09-13T20:27:37.063Z,22.10
2018-09-13T20:30:06.728Z,21.90
2018-09-13T20:32:35.302Z,21.80
2018-09-13T20:35:04.234Z,21.50
2018-09-13T20:37:32.859Z,21.10
2018-09-13T20:40:01.705Z,21.60
2018-09-13T20:42:30.388Z,20.80
2018-09-13T20:44:59.534Z,20.80
2018-09-13T20:47:28.592Z,20.70
2018-09-13T20:49:57.290Z,20.70
2018-09-13T20:52:25.950Z,20.70
2018-09-13T20:54:54.620Z,20.60
2018-09-13T20:57:23.529Z,19.60
2018-09-13T20:59:52.637Z,20.50
2018-09-13T21:02:21.353Z,20.50
2018-09-13T21:04:50.134Z,20.50
2018-09-13T21:07:22.990Z,20.20
2018-09-13T21:09:51.880Z,20.50
2018-09-13T21:12:20.618Z,19.90
2018-09-13T21:14:49.344Z,20.40
2018-09-13T21:17:18.024Z,19.00
2018-09-13T21:19:46.667Z,19.20
2018-09-13T21:22:15.342Z,20.30
2018-09-13T21:24:44.041Z,20.30
2018-09-13T21:27:12.748Z,19.60
2018-09-13T21:29:41.809Z,20.40
2018-09-13T21:32:10.698Z,20.40
2018-09-13T21:34:39.518Z,20.40
2018-09-13T21:37:08.244Z,20.50
2018-09-13T21:39:37.111Z,20.20
2018-09-13T21:42:06.078Z,20.00
2018-09-13T21:44:34.875Z,20.20
2018-09-13T21:47:03.754Z,20.30
2018-09-13T21:49:32.441Z,20.40
2018-09-13T21:52:01.379Z,20.40
2018-09-13T21:54:30.072Z,20.10
2018-09-13T21:56:59.282Z,20.30
2018-09-13T21:59:27.978Z,20.30
2018-09-13T22:01:56.535Z,21.00
2018-09-13T22:04:25.243Z,20.40
2018-09-13T22:06:55.533Z,20.40
2018-09-13T22:09:24.239Z,20.30
2018-09-13T22:11:52.915Z,20.30
2018-09-13T22:14:21.562Z,20.40
2018-09-13T22:16:50.444Z,20.40
2018-09-13T22:19:19.060Z,20.40
2018-09-13T22:21:47.852Z,20.30
2018-09-13T22:24:16.427Z,20.20
2018-09-13T22:26:46.569Z,20.20
2018-09-13T22:29:15.328Z,20.20
2018-09-13T22:31:43.940Z,20.20
2018-09-13T22:34:12.898Z,20.20
2018-09-13T22:36:41.686Z,20.20
2018-09-13T22:39:11.461Z,20.20
2018-09-13T22:41:40.234Z,20.30
2018-09-13T22:44:09.036Z,20.30
2018-09-13T22:46:37.714Z,20.40
2018-09-13T22:49:09.134Z,20.30
2018-09-13T22:51:37.825Z,20.30
2018-09-13T22:54:06.631Z,20.30
2018-09-13T22:56:35.372Z,20.30
2018-09-13T22:59:04.111Z,19.50
2018-09-13T23:01:33.070Z,20.20
2018-09-13T23:04:02.000Z,20.30
2018-09-13T23:06:30.707Z,20.20
2018-09-13T23:08:59.295Z,20.20
2018-09-13T23:11:28.452Z,19.60
2018-09-13T23:13:57.195Z,20.10
2018-09-13T23:16:26.027Z,20.10
2018-09-13T23:18:55.046Z,20.10
2018-09-13T23:21:23.782Z,18.80
2018-09-13T23:23:52.533Z,20.00
2018-09-13T23:26:21.300Z,20.00
2018-09-13T23:28:50.048Z,20.10
2018-09-13T23:31:18.770Z,20.10
2018-09-13T23:33:47.443Z,20.00
2018-09-13T23:36:16.320Z,19.90
2018-09-13T23:38:44.967Z,19.90
2018-09-13T23:41:13.682Z,19.90
2018-09-13T23:43:42.374Z,20.00
2018-09-13T23:46:11.051Z,21.00
2018-09-13T23:48:40.021Z,20.00
2018-09-13T23:51:09.159Z,20.00
2018-09-13T23:53:38.015Z,20.00
2018-09-13T23:56:08.519Z,19.90
2018-09-13T23:58:37.336Z,19.80
